KUIL/UIL METAR and TAF weather

Enter ICAO airport designator
Station Type Date Time Source
KUIL METAR 2020/04/08 21:53 UTC NOAA

KUIL 082153Z AUTO 29010KT 10SM CLR 16/04 A3025 RMK AO2 SLP245 T01560039


Station Type Date Time Source
KUIL Decoded METAR 2020/04/08 21:53 UTC NOAA

QUILLAYUTE STATE AIRPORT, WA, United States (KUIL) 47-56N 124-34W 54M
Apr 08, 2020 - 05:53 PM EDT / 2020.04.08 2153 UTC
Wind: from the WNW (290 degrees) at 12 MPH (10 KT):0
Visibility: 10 mile(s):0
Sky conditions: clear
Temperature: 60.1 F (15.6 C)
Dew Point: 39.0 F (3.9 C)
Relative Humidity: 45%
Pressure (altimeter): 30.25 in. Hg (1024 hPa)
ob: KUIL 082153Z AUTO 29010KT 10SM CLR 16/04 A3025 RMK AO2 SLP245 T01560039
cycle: 22

Station Type Date Time Source
KUIL TAF UTC NOAA

Error!

Example: see airport list